Wofford Heights, California
Current Conditions -  °F | °C
As of 7:54 PM on Tuesday 21 Oct 2014 (Local Time) from KBFL Reporting Station
Clear Clear  
Wind Chill: 66°   Ceiling: Unl
Heat Index: 66°   Visibility: 10mi
Dew Point: 42°   Wind: 0mph
Humidity: 42%   Direction: NA
Pressure: 29.99"   Gusts: NA
Location:  35.71°N, 118.47°W
Report Text: KBFL 220254Z 00000KT 10SM CLR 19/06 A2999 RMK AO2 SLP152 T01890056 53007
Loading
Personal Weather Stations






























Interactive Weather Map
Tropical Storm Tracking
New forecast layout! Learn more

10-Day Weather Forecast

Advertisements
Track Severe Weather on mobile